Time;durP1;ratioP1;P1;durP2;ratioP2;P2;SDS_P1;SDS_P2;PMS_P1;PMS_P2;Temp;Humidity;BMP_temperature;BMP_pressure;BME280_temperature;BME280_humidity;BME280_pressure;Samples;Min_cycle;Max_cycle;Signal;HPM_P1;HPM_P2
2024/01/17 00:00:13;;;;;;;18.67;14.88;;;;;;;;;;5053447;28;20420;-80
2024/01/17 00:02:39;;;;;;;19.95;15.95;;;;;;;;;;5053322;28;20385;-81
2024/01/17 00:05:06;;;;;;;19.85;16.30;;;;;;;;;;5053193;28;20443;-80
2024/01/17 00:07:32;;;;;;;19.75;16.35;;;;;;;;;;5052828;28;20385;-81
2024/01/17 00:09:58;;;;;;;21.05;16.63;;;;;;;;;;5052872;28;20401;-80
2024/01/17 00:12:24;;;;;;;19.77;16.17;;;;;;;;;;5052907;28;20382;-80
2024/01/17 00:14:50;;;;;;;20.98;16.45;;;;;;;;;;5058108;28;20720;-80
2024/01/17 00:17:16;;;;;;;18.10;15.70;;;;;;;;;;5051567;28;20478;-80
2024/01/17 00:19:42;;;;;;;20.17;16.20;;;;;;;;;;5034704;28;20949;-80
2024/01/17 00:22:08;;;;;;;19.85;15.95;;;;;;;;;;5052490;28;20413;-80
2024/01/17 00:24:34;;;;;;;19.90;16.07;;;;;;;;;;5052581;28;20789;-80
2024/01/17 00:27:00;;;;;;;17.70;15.88;;;;;;;;;;5052557;28;20377;-80
2024/01/17 00:29:26;;;;;;;20.97;16.07;;;;;;;;;;5052730;28;20384;-80
2024/01/17 00:31:52;;;;;;;21.60;16.52;;;;;;;;;;5053023;28;20411;-80
2024/01/17 00:34:18;;;;;;;17.67;15.60;;;;;;;;;;5052841;28;20460;-80
2024/01/17 00:36:44;;;;;;;20.33;16.40;;;;;;;;;;5052614;28;20381;-80
2024/01/17 00:39:12;;;;;;;20.58;16.15;;;;;;;;;;5052523;28;20413;-80
2024/01/17 00:41:38;;;;;;;18.73;15.93;;;;;;;;;;5052640;28;20377;-80
2024/01/17 00:44:04;;;;;;;19.13;15.98;;;;;;;;;;5052662;28;20391;-80
2024/01/17 00:46:31;;;;;;;21.92;16.85;;;;;;;;;;5052345;28;20424;-80
2024/01/17 00:48:57;;;;;;;20.73;16.48;;;;;;;;;;5052332;28;20411;-80
2024/01/17 00:51:23;;;;;;;20.33;16.73;;;;;;;;;;5052536;28;21093;-80
2024/01/17 00:53:49;;;;;;;22.15;17.30;;;;;;;;;;5052345;28;20465;-80
2024/01/17 00:56:16;;;;;;;22.13;17.27;;;;;;;;;;5052061;28;20805;-80
2024/01/17 00:58:42;;;;;;;19.67;16.85;;;;;;;;;;5051883;28;20401;-79
2024/01/17 01:01:08;;;;;;;21.00;17.27;;;;;;;;;;5052341;28;20717;-80
2024/01/17 01:03:34;;;;;;;22.30;17.03;;;;;;;;;;5052903;28;20381;-80
2024/01/17 01:06:00;;;;;;;20.88;17.00;;;;;;;;;;5053400;28;20464;-80
2024/01/17 01:08:26;;;;;;;19.75;16.25;;;;;;;;;;5052978;28;20953;-80
2024/01/17 01:10:52;;;;;;;20.43;16.67;;;;;;;;;;5053245;28;20435;-80
2024/01/17 01:13:18;;;;;;;21.08;17.00;;;;;;;;;;5053467;28;20389;-80
2024/01/17 01:15:44;;;;;;;20.55;17.38;;;;;;;;;;5053229;28;20397;-80
2024/01/17 01:18:10;;;;;;;19.45;16.38;;;;;;;;;;5053273;28;20420;-80
2024/01/17 01:20:36;;;;;;;19.73;16.58;;;;;;;;;;5054895;28;20376;-81
2024/01/17 01:23:02;;;;;;;21.15;16.33;;;;;;;;;;5052798;28;20377;-80
2024/01/17 01:25:28;;;;;;;20.90;17.23;;;;;;;;;;5052536;28;20744;-81
2024/01/17 01:27:54;;;;;;;20.98;17.08;;;;;;;;;;5052350;28;20388;-80
2024/01/17 01:30:21;;;;;;;20.02;16.42;;;;;;;;;;5052699;28;20377;-80
2024/01/17 01:32:47;;;;;;;23.67;18.40;;;;;;;;;;5052687;28;20400;-80
2024/01/17 01:35:13;;;;;;;23.30;18.77;;;;;;;;;;5034725;28;20412;-80
2024/01/17 01:37:39;;;;;;;21.70;18.10;;;;;;;;;;5052442;28;20400;-80
2024/01/17 01:40:07;;;;;;;22.43;17.93;;;;;;;;;;5052363;28;20468;-80
2024/01/17 01:42:34;;;;;;;19.38;17.15;;;;;;;;;;5052684;28;20430;-80
2024/01/17 01:45:00;;;;;;;22.83;17.88;;;;;;;;;;5052593;28;20588;-80
2024/01/17 01:47:26;;;;;;;21.13;17.55;;;;;;;;;;5052795;28;20397;-80
2024/01/17 01:49:52;;;;;;;21.10;17.63;;;;;;;;;;5078295;28;20399;-81
2024/01/17 01:52:20;;;;;;;23.35;18.52;;;;;;;;;;5076524;28;20399;-81
2024/01/17 01:54:46;;;;;;;20.83;17.65;;;;;;;;;;5075961;28;20386;-82
2024/01/17 01:57:12;;;;;;;25.15;19.10;;;;;;;;;;5075160;28;20533;-82
2024/01/17 01:59:39;;;;;;;23.90;18.83;;;;;;;;;;5075867;28;20391;-81
2024/01/17 02:02:05;;;;;;;24.27;19.83;;;;;;;;;;5076186;28;20389;-81
2024/01/17 02:04:32;;;;;;;24.67;19.90;;;;;;;;;;5075592;28;20884;-81
2024/01/17 02:06:59;;;;;;;22.95;19.63;;;;;;;;;;5067059;28;20396;-81
2024/01/17 02:09:26;;;;;;;24.93;20.17;;;;;;;;;;5055349;28;20479;-81
2024/01/17 02:11:52;;;;;;;23.67;19.45;;;;;;;;;;5055498;28;20437;-81
2024/01/17 02:14:19;;;;;;;24.02;19.90;;;;;;;;;;5055212;28;20389;-81
2024/01/17 02:16:46;;;;;;;26.70;20.65;;;;;;;;;;5054776;28;20385;-81
2024/01/17 02:19:14;;;;;;;24.00;19.42;;;;;;;;;;5055142;28;20416;-81
2024/01/17 02:21:40;;;;;;;24.83;20.20;;;;;;;;;;5036601;28;20385;-82
2024/01/17 02:24:15;;;;;;;24.38;19.45;;;;;;;;;;5054849;28;20446;-81
2024/01/17 02:26:41;;;;;;;25.75;20.70;;;;;;;;;;5054363;28;20797;-81
2024/01/17 02:29:07;;;;;;;25.45;20.73;;;;;;;;;;5054772;28;20403;-81
2024/01/17 02:31:33;;;;;;;23.77;18.90;;;;;;;;;;5054138;28;20385;-81
2024/01/17 02:33:59;;;;;;;26.17;20.25;;;;;;;;;;5036514;28;20729;-82
2024/01/17 02:36:25;;;;;;;25.55;20.45;;;;;;;;;;5053980;28;20422;-81
2024/01/17 02:38:51;;;;;;;23.45;19.40;;;;;;;;;;5054131;28;20420;-81
2024/01/17 02:41:17;;;;;;;25.93;20.47;;;;;;;;;;5056887;28;20408;-82
2024/01/17 02:43:43;;;;;;;25.23;20.95;;;;;;;;;;5058247;28;21097;-81
2024/01/17 02:46:09;;;;;;;26.20;20.73;;;;;;;;;;5057616;28;20484;-82
2024/01/17 02:48:35;;;;;;;25.30;20.48;;;;;;;;;;5057879;28;20377;-81
2024/01/17 02:51:01;;;;;;;25.73;20.73;;;;;;;;;;5057104;28;20922;-81
2024/01/17 02:53:27;;;;;;;24.08;20.52;;;;;;;;;;5057144;28;20389;-81
2024/01/17 02:55:53;;;;;;;25.52;20.70;;;;;;;;;;5057574;28;20385;-81
2024/01/17 02:58:19;;;;;;;26.92;22.40;;;;;;;;;;5056792;28;20405;-81
2024/01/17 03:00:45;;;;;;;30.30;22.93;;;;;;;;;;5038654;28;20382;-81
2024/01/17 03:03:11;;;;;;;27.98;22.25;;;;;;;;;;5056823;28;20395;-82
2024/01/17 03:05:38;;;;;;;27.03;21.60;;;;;;;;;;5057313;28;20439;-80
2024/01/17 03:08:07;;;;;;;27.70;22.25;;;;;;;;;;5057540;28;20716;-81
2024/01/17 03:10:33;;;;;;;28.70;22.45;;;;;;;;;;5056943;28;21233;-81
2024/01/17 03:12:59;;;;;;;30.05;23.55;;;;;;;;;;5061195;28;20385;-81
2024/01/17 03:15:25;;;;;;;28.45;23.65;;;;;;;;;;5056723;28;20743;-81
2024/01/17 03:17:51;;;;;;;30.17;23.40;;;;;;;;;;5055262;28;20405;-81
2024/01/17 03:20:17;;;;;;;29.85;22.70;;;;;;;;;;5054247;28;20374;-80
2024/01/17 03:22:44;;;;;;;29.42;24.17;;;;;;;;;;5054064;28;20373;-81
2024/01/17 03:25:10;;;;;;;30.88;24.05;;;;;;;;;;5053999;28;20778;-80
2024/01/17 03:27:36;;;;;;;28.42;23.50;;;;;;;;;;5050180;28;20468;-80
2024/01/17 03:30:03;;;;;;;31.23;24.77;;;;;;;;;;5048376;28;20386;-80
2024/01/17 03:32:29;;;;;;;29.05;23.58;;;;;;;;;;5053804;28;20937;-80
2024/01/17 03:34:55;;;;;;;31.33;23.50;;;;;;;;;;5054243;28;20421;-80
2024/01/17 03:37:22;;;;;;;29.55;23.42;;;;;;;;;;5054320;28;20431;-81
2024/01/17 03:39:49;;;;;;;28.00;22.83;;;;;;;;;;5054438;28;20385;-80
2024/01/17 03:42:18;;;;;;;29.85;23.58;;;;;;;;;;5054197;28;20464;-80
2024/01/17 03:44:44;;;;;;;29.63;23.50;;;;;;;;;;5054267;28;20404;-80
2024/01/17 03:47:10;;;;;;;28.00;23.30;;;;;;;;;;5053769;28;20377;-80
2024/01/17 03:49:36;;;;;;;26.30;22.83;;;;;;;;;;5054701;28;20377;-80
2024/01/17 03:52:02;;;;;;;29.77;23.95;;;;;;;;;;5053993;28;20843;-80
2024/01/17 03:54:28;;;;;;;29.48;23.48;;;;;;;;;;5067957;28;20390;-80
2024/01/17 03:56:54;;;;;;;30.33;24.35;;;;;;;;;;5074082;28;20380;-80
2024/01/17 03:59:20;;;;;;;31.58;24.13;;;;;;;;;;5073468;28;20463;-80
2024/01/17 04:01:47;;;;;;;31.55;24.10;;;;;;;;;;5074517;28;20367;-80
2024/01/17 04:04:13;;;;;;;30.63;25.00;;;;;;;;;;5074078;28;20912;-81
2024/01/17 04:06:40;;;;;;;32.95;26.00;;;;;;;;;;5074643;28;20469;-81
2024/01/17 04:09:06;;;;;;;34.47;26.27;;;;;;;;;;5074567;28;20509;-80
2024/01/17 04:11:32;;;;;;;37.20;27.80;;;;;;;;;;5074322;28;20380;-80
2024/01/17 04:13:58;;;;;;;36.72;27.90;;;;;;;;;;5074287;28;20387;-80
2024/01/17 04:16:24;;;;;;;32.63;25.73;;;;;;;;;;5069169;28;20757;-81
2024/01/17 04:18:50;;;;;;;35.45;27.02;;;;;;;;;;5053894;28;20412;-80
2024/01/17 04:21:18;;;;;;;33.28;26.45;;;;;;;;;;5037779;28;20389;-80
2024/01/17 04:23:44;;;;;;;33.65;26.63;;;;;;;;;;5055645;28;20943;-80
2024/01/17 04:26:18;;;;;;;32.50;25.55;;;;;;;;;;5055538;28;20750;-81
2024/01/17 04:28:45;;;;;;;32.78;24.88;;;;;;;;;;5056033;28;20392;-80
2024/01/17 04:31:11;;;;;;;31.00;25.02;;;;;;;;;;5056271;28;20393;-80
2024/01/17 04:33:37;;;;;;;28.37;23.87;;;;;;;;;;5055974;28;20469;-80
2024/01/17 04:36:03;;;;;;;30.83;24.70;;;;;;;;;;5055755;28;20930;-81
2024/01/17 04:38:29;;;;;;;31.15;24.95;;;;;;;;;;5054641;28;20492;-81
2024/01/17 04:40:55;;;;;;;30.70;24.70;;;;;;;;;;5054818;28;20878;-80
2024/01/17 04:43:22;;;;;;;28.90;22.90;;;;;;;;;;5054489;28;20385;-81
2024/01/17 04:45:48;;;;;;;29.33;24.63;;;;;;;;;;5054643;28;20548;-80
2024/01/17 04:48:14;;;;;;;31.03;24.57;;;;;;;;;;5054592;28;20380;-80
2024/01/17 04:50:41;;;;;;;31.63;23.92;;;;;;;;;;5055300;28;20402;-82
2024/01/17 04:53:07;;;;;;;30.58;23.05;;;;;;;;;;5037161;28;20385;-80
2024/01/17 04:55:33;;;;;;;31.02;23.98;;;;;;;;;;5055200;28;20413;-80
2024/01/17 04:57:59;;;;;;;31.02;24.77;;;;;;;;;;5055255;28;20421;-80
2024/01/17 05:00:25;;;;;;;40.30;28.38;;;;;;;;;;5054701;28;20390;-80
2024/01/17 05:02:51;;;;;;;38.72;27.95;;;;;;;;;;5054476;28;20465;-80
2024/01/17 05:05:17;;;;;;;34.72;26.55;;;;;;;;;;5054356;28;20828;-80
2024/01/17 05:07:44;;;;;;;34.50;25.70;;;;;;;;;;5054226;28;20419;-80
2024/01/17 05:10:10;;;;;;;30.30;24.25;;;;;;;;;;5054801;28;20371;-80
2024/01/17 05:12:36;;;;;;;37.60;25.67;;;;;;;;;;5053969;28;20832;-80
2024/01/17 05:15:03;;;;;;;34.05;25.83;;;;;;;;;;5056159;28;20439;-80
2024/01/17 05:17:29;;;;;;;31.50;24.02;;;;;;;;;;5055329;28;20443;-80
2024/01/17 05:19:55;;;;;;;33.10;24.63;;;;;;;;;;5055481;28;20380;-80
2024/01/17 05:22:21;;;;;;;33.15;25.10;;;;;;;;;;5055074;28;20373;-80
2024/01/17 05:24:47;;;;;;;31.67;24.85;;;;;;;;;;5055207;28;20420;-80
2024/01/17 05:27:13;;;;;;;30.98;24.75;;;;;;;;;;5054999;28;20404;-80
2024/01/17 05:29:43;;;;;;;32.63;25.45;;;;;;;;;;5055583;28;20384;-80
2024/01/17 05:32:09;;;;;;;31.80;24.83;;;;;;;;;;5055386;28;20400;-80
2024/01/17 05:34:36;;;;;;;32.92;25.42;;;;;;;;;;5054482;28;20427;-80
2024/01/17 05:37:03;;;;;;;33.63;25.25;;;;;;;;;;5054207;28;20380;-80
2024/01/17 05:39:29;;;;;;;32.38;25.58;;;;;;;;;;5054252;28;20416;-80
2024/01/17 05:42:07;;;;;;;33.97;25.47;;;;;;;;;;5041663;28;20386;-85
2024/01/17 05:44:33;;;;;;;33.80;26.27;;;;;;;;;;5037268;28;20464;-79
2024/01/17 05:46:59;;;;;;;37.40;27.75;;;;;;;;;;5054394;28;20462;-80
2024/01/17 05:49:25;;;;;;;36.13;27.27;;;;;;;;;;5054375;28;20409;-81
2024/01/17 05:51:51;;;;;;;36.57;27.23;;;;;;;;;;5036647;28;20895;-80
2024/01/17 05:54:17;;;;;;;33.50;26.95;;;;;;;;;;5054816;28;20382;-80
2024/01/17 05:56:43;;;;;;;36.08;27.38;;;;;;;;;;5054942;28;20396;-80
2024/01/17 05:59:10;;;;;;;34.40;26.88;;;;;;;;;;5054958;28;20459;-80
2024/01/17 06:01:36;;;;;;;35.53;27.75;;;;;;;;;;5070936;28;20394;-80
2024/01/17 06:04:02;;;;;;;33.35;26.63;;;;;;;;;;5075556;28;21179;-80
2024/01/17 06:06:28;;;;;;;35.17;26.38;;;;;;;;;;5075712;28;20979;-80
2024/01/17 06:08:54;;;;;;;36.50;28.45;;;;;;;;;;5075571;28;20383;-80
2024/01/17 06:11:20;;;;;;;33.73;27.07;;;;;;;;;;5076051;28;20384;-79
2024/01/17 06:13:46;;;;;;;35.92;27.17;;;;;;;;;;5076223;28;20730;-79
2024/01/17 06:16:12;;;;;;;35.65;27.33;;;;;;;;;;5060945;28;20388;-80
2024/01/17 06:18:38;;;;;;;35.55;27.15;;;;;;;;;;5078505;28;20415;-79
2024/01/17 06:21:04;;;;;;;38.72;28.60;;;;;;;;;;5055665;28;20380;-79
2024/01/17 06:23:30;;;;;;;35.10;27.45;;;;;;;;;;5059211;28;20385;-80
2024/01/17 06:25:57;;;;;;;34.97;27.45;;;;;;;;;;5059032;28;20434;-80
2024/01/17 06:28:23;;;;;;;37.60;28.23;;;;;;;;;;5060013;28;20759;-81
2024/01/17 06:30:49;;;;;;;32.33;26.25;;;;;;;;;;5059734;28;20472;-79
2024/01/17 06:33:15;;;;;;;36.17;28.23;;;;;;;;;;5058526;28;20389;-80
2024/01/17 06:35:41;;;;;;;36.17;27.48;;;;;;;;;;5055798;28;20381;-80
2024/01/17 06:38:07;;;;;;;33.22;26.48;;;;;;;;;;5056431;28;20486;-81
2024/01/17 06:40:33;;;;;;;34.77;26.43;;;;;;;;;;5055544;28;20469;-79
2024/01/17 06:42:59;;;;;;;35.63;27.35;;;;;;;;;;5056273;28;20384;-80
2024/01/17 06:45:25;;;;;;;32.03;25.80;;;;;;;;;;5056451;28;20409;-80
2024/01/17 06:47:51;;;;;;;38.50;27.77;;;;;;;;;;5057587;28;20859;-79
2024/01/17 06:50:18;;;;;;;37.13;28.00;;;;;;;;;;5059949;28;20436;-79
2024/01/17 06:52:45;;;;;;;40.90;29.00;;;;;;;;;;5059261;28;20480;-79
2024/01/17 06:55:11;;;;;;;37.65;28.77;;;;;;;;;;5059469;28;20440;-80
2024/01/17 06:57:37;;;;;;;34.63;26.45;;;;;;;;;;5042140;28;20894;-80
2024/01/17 07:00:04;;;;;;;37.93;27.77;;;;;;;;;;5059041;28;20448;-79
2024/01/17 07:02:30;;;;;;;34.03;26.38;;;;;;;;;;5059411;28;20455;-80
2024/01/17 07:04:56;;;;;;;32.88;26.40;;;;;;;;;;5058205;28;20827;-80
2024/01/17 07:07:22;;;;;;;36.45;28.08;;;;;;;;;;5057730;28;20381;-80
2024/01/17 07:09:48;;;;;;;41.92;30.77;;;;;;;;;;5059462;28;20439;-80
2024/01/17 07:12:14;;;;;;;43.05;30.80;;;;;;;;;;5059967;28;20373;-80
2024/01/17 07:14:40;;;;;;;49.47;33.70;;;;;;;;;;5059288;28;20423;-79
2024/01/17 07:17:06;;;;;;;51.15;35.65;;;;;;;;;;5060307;28;20382;-80
2024/01/17 07:19:36;;;;;;;44.30;31.75;;;;;;;;;;5061280;28;20412;-79
2024/01/17 07:22:02;;;;;;;48.45;33.70;;;;;;;;;;5061658;28;20373;-80
2024/01/17 07:24:28;;;;;;;48.88;34.97;;;;;;;;;;5044051;28;20393;-80
2024/01/17 07:26:54;;;;;;;44.92;32.67;;;;;;;;;;5062842;28;20389;-80
2024/01/17 07:29:20;;;;;;;66.68;42.70;;;;;;;;;;5062973;28;20449;-80
2024/01/17 07:31:46;;;;;;;49.78;34.05;;;;;;;;;;5061996;28;20392;-80
2024/01/17 07:34:12;;;;;;;37.72;28.60;;;;;;;;;;5062614;28;20385;-79
2024/01/17 07:36:38;;;;;;;36.40;28.40;;;;;;;;;;5062265;28;20377;-79
2024/01/17 07:39:05;;;;;;;31.08;25.33;;;;;;;;;;5062475;28;20420;-80
2024/01/17 07:41:31;;;;;;;32.53;25.87;;;;;;;;;;5063118;28;20397;-79
2024/01/17 07:43:57;;;;;;;31.33;24.92;;;;;;;;;;5063215;28;20377;-79
2024/01/17 07:46:23;;;;;;;33.40;25.63;;;;;;;;;;5063260;28;20922;-80
2024/01/17 07:48:49;;;;;;;32.90;26.60;;;;;;;;;;5062618;28;20404;-79
2024/01/17 07:51:15;;;;;;;30.63;25.77;;;;;;;;;;5064750;28;20422;-81
2024/01/17 07:53:41;;;;;;;32.60;27.25;;;;;;;;;;5062327;28;20393;-79
2024/01/17 07:56:07;;;;;;;30.27;24.48;;;;;;;;;;5062623;28;20377;-80
2024/01/17 07:58:33;;;;;;;31.93;25.70;;;;;;;;;;5061281;28;20444;-80
2024/01/17 08:00:59;;;;;;;31.90;26.60;;;;;;;;;;5060619;28;20381;-81
2024/01/17 08:03:26;;;;;;;33.00;26.63;;;;;;;;;;5061159;28;20389;-80
2024/01/17 08:05:52;;;;;;;35.38;27.65;;;;;;;;;;5061296;28;20750;-81
2024/01/17 08:08:18;;;;;;;35.75;27.42;;;;;;;;;;5060702;28;20392;-81
2024/01/17 08:10:43;;;;;;;37.80;28.20;;;;;;;;;;5061794;28;20458;-81
2024/01/17 08:13:09;;;;;;;34.60;27.27;;;;;;;;;;5059972;28;20386;-81
2024/01/17 08:15:35;;;;;;;36.00;27.45;;;;;;;;;;5061543;28;20500;-80
2024/01/17 08:18:03;;;;;;;34.83;27.13;;;;;;;;;;5060523;28;20409;-81
2024/01/17 08:20:29;;;;;;;32.05;26.08;;;;;;;;;;5061730;28;20390;-81
2024/01/17 08:22:55;;;;;;;34.17;26.77;;;;;;;;;;5060681;28;20373;-81
2024/01/17 08:25:21;;;;;;;35.67;28.23;;;;;;;;;;5061457;28;20807;-81
2024/01/17 08:27:47;;;;;;;37.40;28.25;;;;;;;;;;5060722;28;20405;-81
2024/01/17 08:30:14;;;;;;;35.20;27.70;;;;;;;;;;5043569;28;20414;-81
2024/01/17 08:32:40;;;;;;;35.92;27.85;;;;;;;;;;5061055;28;20377;-81
2024/01/17 08:35:06;;;;;;;30.98;25.33;;;;;;;;;;5060520;28;20472;-80
2024/01/17 08:37:33;;;;;;;31.63;25.45;;;;;;;;;;5060509;28;20492;-80
2024/01/17 08:39:59;;;;;;;31.15;24.42;;;;;;;;;;5060560;28;20462;-80
2024/01/17 08:42:25;;;;;;;26.50;22.77;;;;;;;;;;5061235;28;20500;-81
2024/01/17 08:44:51;;;;;;;25.35;22.63;;;;;;;;;;5060313;28;20442;-80
2024/01/17 08:47:17;;;;;;;27.75;22.65;;;;;;;;;;5059141;28;20442;-79
2024/01/17 08:49:43;;;;;;;27.63;22.42;;;;;;;;;;5058146;28;20468;-79
2024/01/17 08:52:09;;;;;;;25.98;22.75;;;;;;;;;;5058914;28;20857;-80
2024/01/17 08:54:35;;;;;;;25.23;20.87;;;;;;;;;;5057537;28;20461;-79
2024/01/17 08:57:02;;;;;;;24.40;21.30;;;;;;;;;;5056787;28;20412;-80
2024/01/17 08:59:29;;;;;;;28.00;23.07;;;;;;;;;;5056293;28;20442;-79
2024/01/17 09:01:56;;;;;;;24.60;21.10;;;;;;;;;;5056574;28;20377;-80
2024/01/17 09:04:23;;;;;;;23.88;20.35;;;;;;;;;;5060426;28;20847;-80
2024/01/17 09:06:50;;;;;;;20.95;18.67;;;;;;;;;;5059210;28;20445;-79
2024/01/17 09:09:16;;;;;;;19.07;17.17;;;;;;;;;;5060409;28;20875;-80
2024/01/17 09:11:42;;;;;;;18.55;16.65;;;;;;;;;;5061432;28;20382;-79
2024/01/17 09:14:10;;;;;;;17.55;15.95;;;;;;;;;;5061365;28;20382;-80
2024/01/17 09:16:36;;;;;;;18.92;17.02;;;;;;;;;;5061543;28;20377;-80
2024/01/17 09:19:02;;;;;;;22.05;19.77;;;;;;;;;;5061246;28;20431;-79
2024/01/17 09:21:28;;;;;;;21.53;19.23;;;;;;;;;;5061844;28;20377;-80
2024/01/17 09:23:54;;;;;;;20.83;18.67;;;;;;;;;;5061081;28;20457;-80
2024/01/17 09:26:21;;;;;;;22.73;20.17;;;;;;;;;;5060492;28;20402;-79
2024/01/17 09:28:47;;;;;;;23.65;19.95;;;;;;;;;;5061065;28;20381;-80
2024/01/17 09:31:14;;;;;;;22.93;20.17;;;;;;;;;;5060991;28;20533;-80
2024/01/17 09:33:40;;;;;;;23.57;20.60;;;;;;;;;;5060629;28;20385;-80
2024/01/17 09:36:06;;;;;;;21.80;19.27;;;;;;;;;;5060967;28;20460;-79
2024/01/17 09:38:32;;;;;;;21.25;19.05;;;;;;;;;;5060023;28;20488;-80
2024/01/17 09:40:58;;;;;;;19.88;17.77;;;;;;;;;;5060194;28;20775;-80
2024/01/17 09:43:24;;;;;;;20.55;18.45;;;;;;;;;;5059980;28;20384;-79
2024/01/17 09:45:51;;;;;;;19.00;16.95;;;;;;;;;;5061267;28;20916;-80
2024/01/17 09:48:18;;;;;;;18.50;16.67;;;;;;;;;;5060074;28;20469;-80
2024/01/17 09:50:45;;;;;;;19.15;17.20;;;;;;;;;;5064548;28;20406;-80
2024/01/17 09:53:12;;;;;;;18.40;16.50;;;;;;;;;;5065439;28;20380;-79
2024/01/17 09:55:39;;;;;;;17.83;16.13;;;;;;;;;;5057330;28;20423;-80
2024/01/17 09:58:05;;;;;;;18.75;16.92;;;;;;;;;;5055969;28;20427;-80
2024/01/17 10:00:33;;;;;;;17.52;15.82;;;;;;;;;;5057465;28;20385;-80
2024/01/17 10:03:00;;;;;;;17.83;16.10;;;;;;;;;;5059172;28;20779;-79
2024/01/17 10:05:26;;;;;;;20.48;18.13;;;;;;;;;;5059084;28;20392;-80
2024/01/17 10:07:54;;;;;;;18.52;16.77;;;;;;;;;;5066999;28;20387;-80
2024/01/17 10:10:21;;;;;;;19.05;17.20;;;;;;;;;;5081470;28;20428;-80
2024/01/17 10:12:47;;;;;;;19.77;17.77;;;;;;;;;;5066819;28;20431;-80
2024/01/17 10:15:14;;;;;;;18.98;17.10;;;;;;;;;;5061514;28;20392;-79
2024/01/17 10:17:40;;;;;;;19.55;17.55;;;;;;;;;;5062463;28;20890;-80
2024/01/17 10:20:07;;;;;;;19.15;17.17;;;;;;;;;;5062745;28;20954;-80
2024/01/17 10:22:33;;;;;;;18.45;16.70;;;;;;;;;;5063574;28;20426;-80
2024/01/17 10:25:03;;;;;;;19.23;17.33;;;;;;;;;;5064664;28;20385;-79
2024/01/17 10:27:29;;;;;;;19.27;17.33;;;;;;;;;;5063793;28;20409;-79
2024/01/17 10:29:55;;;;;;;20.00;17.87;;;;;;;;;;5062993;28;20389;-81
2024/01/17 10:32:21;;;;;;;18.75;16.85;;;;;;;;;;5064123;28;20387;-81
2024/01/17 10:34:47;;;;;;;19.23;17.33;;;;;;;;;;5064632;28;20412;-81
2024/01/17 10:37:14;;;;;;;18.15;16.35;;;;;;;;;;5063851;28;20483;-80
2024/01/17 10:39:40;;;;;;;21.08;18.25;;;;;;;;;;5064008;28;20409;-79
2024/01/17 10:42:07;;;;;;;19.00;17.10;;;;;;;;;;5064113;28;20982;-79
2024/01/17 10:44:33;;;;;;;18.13;16.33;;;;;;;;;;5063907;28;20445;-81
2024/01/17 10:47:00;;;;;;;18.40;16.52;;;;;;;;;;5063427;28;20389;-81
2024/01/17 10:49:26;;;;;;;17.17;15.57;;;;;;;;;;5063139;28;20389;-79
2024/01/17 10:52:03;;;;;;;18.03;16.23;;;;;;;;;;5063667;28;20501;-80
2024/01/17 10:54:42;;;;;;;17.75;16.05;;;;;;;;;;5062937;28;20412;-80
2024/01/17 10:57:08;;;;;;;18.02;16.15;;;;;;;;;;5060031;28;20443;-79
2024/01/17 10:59:34;;;;;;;17.67;16.05;;;;;;;;;;5060683;28;20475;-79
2024/01/17 11:02:01;;;;;;;17.70;15.98;;;;;;;;;;5059532;28;20401;-81
2024/01/17 11:04:30;;;;;;;17.98;16.10;;;;;;;;;;5059631;28;20377;-79
2024/01/17 11:06:56;;;;;;;16.93;15.33;;;;;;;;;;5059723;28;20382;-79
2024/01/17 11:09:24;;;;;;;18.00;16.30;;;;;;;;;;5059398;28;20399;-80
2024/01/17 11:11:50;;;;;;;18.10;16.30;;;;;;;;;;5058028;28;20439;-80
2024/01/17 11:14:17;;;;;;;18.50;16.70;;;;;;;;;;5039922;28;20388;-80
2024/01/17 11:16:48;;;;;;;21.02;18.85;;;;;;;;;;5057278;28;20393;-80
2024/01/17 11:19:16;;;;;;;21.98;19.67;;;;;;;;;;5057717;28;20410;-80
2024/01/17 11:21:42;;;;;;;22.02;19.73;;;;;;;;;;5057966;28;20381;-80
2024/01/17 11:24:13;;;;;;;21.67;19.38;;;;;;;;;;5057272;28;20381;-81
2024/01/17 11:26:56;;;;;;;22.67;20.27;;;;;;;;;;5058030;28;20380;-80
2024/01/17 11:29:35;;;;;;;23.80;21.17;;;;;;;;;;5056515;28;20374;-80
2024/01/17 11:32:17;;;;;;;22.88;20.45;;;;;;;;;;5057503;28;20378;-80
2024/01/17 11:34:42;;;;;;;22.83;20.45;;;;;;;;;;5056936;28;20464;-80
2024/01/17 11:37:09;;;;;;;22.00;19.70;;;;;;;;;;5055833;28;20826;-80
2024/01/17 11:39:35;;;;;;;23.25;20.45;;;;;;;;;;5055215;28;20417;-80
2024/01/17 11:42:01;;;;;;;26.33;22.23;;;;;;;;;;5055601;28;20606;-80
2024/01/17 11:44:27;;;;;;;26.58;23.15;;;;;;;;;;5055678;28;20377;-80
2024/01/17 11:46:53;;;;;;;24.10;21.50;;;;;;;;;;5055670;28;20381;-81
2024/01/17 11:49:41;;;;;;;25.80;21.67;;;;;;;;;;5055618;28;20381;-81
2024/01/17 11:52:37;;;;;;;22.25;19.95;;;;;;;;;;5055161;28;20485;-80
2024/01/17 11:55:05;;;;;;;22.38;19.98;;;;;;;;;;5035205;28;20408;-80
2024/01/17 11:57:37;;;;;;;23.08;20.60;;;;;;;;;;5055624;28;20437;-80
2024/01/17 12:00:04;;;;;;;21.55;19.25;;;;;;;;;;5055914;28;20373;-80
2024/01/17 12:02:37;;;;;;;22.00;19.70;;;;;;;;;;5055573;28;20378;-80
2024/01/17 12:05:04;;;;;;;23.00;19.77;;;;;;;;;;5055124;28;20432;-81
2024/01/17 12:07:30;;;;;;;21.77;19.48;;;;;;;;;;5055257;28;20397;-82
2024/01/17 12:09:57;;;;;;;21.55;19.27;;;;;;;;;;5055127;28;20393;-80
2024/01/17 12:12:22;;;;;;;20.50;18.42;;;;;;;;;;5054961;28;20382;-80
2024/01/17 12:14:48;;;;;;;21.53;19.23;;;;;;;;;;5058141;28;20813;-80
2024/01/17 12:17:14;;;;;;;21.05;18.83;;;;;;;;;;5058638;28;20385;-80
2024/01/17 12:19:40;;;;;;;27.92;21.67;;;;;;;;;;5056611;28;20408;-80
2024/01/17 12:22:08;;;;;;;24.50;19.88;;;;;;;;;;5055369;28;20507;-80
2024/01/17 12:24:36;;;;;;;21.60;19.17;;;;;;;;;;5055376;28;20851;-80
2024/01/17 12:27:05;;;;;;;20.92;18.67;;;;;;;;;;5054612;28;20394;-80
2024/01/17 12:29:32;;;;;;;22.05;18.70;;;;;;;;;;5054679;28;20886;-82
2024/01/17 12:31:58;;;;;;;21.85;19.42;;;;;;;;;;5055059;28;20850;-80
2024/01/17 12:34:24;;;;;;;21.57;19.07;;;;;;;;;;5054739;28;20381;-80
2024/01/17 12:36:50;;;;;;;23.67;20.60;;;;;;;;;;5055018;28;20847;-80
2024/01/17 12:39:17;;;;;;;22.67;19.92;;;;;;;;;;5055548;28;20413;-79
2024/01/17 12:41:43;;;;;;;29.15;22.10;;;;;;;;;;5055097;28;20835;-80
2024/01/17 12:44:09;;;;;;;36.17;27.17;;;;;;;;;;5055375;28;20732;-80
2024/01/17 12:46:35;;;;;;;33.55;25.35;;;;;;;;;;5054248;28;20705;-80
2024/01/17 12:49:01;;;;;;;34.65;25.88;;;;;;;;;;5054371;28;20439;-80
2024/01/17 12:51:29;;;;;;;27.27;22.10;;;;;;;;;;5053903;28;20416;-80
2024/01/17 12:53:56;;;;;;;24.95;19.88;;;;;;;;;;5054357;28;20377;-80
2024/01/17 12:56:22;;;;;;;23.05;18.33;;;;;;;;;;5054104;28;20864;-80
2024/01/17 12:58:48;;;;;;;23.50;19.98;;;;;;;;;;5069254;28;20413;-80
2024/01/17 13:01:16;;;;;;;20.38;18.17;;;;;;;;;;5053953;28;20377;-80
2024/01/17 13:03:44;;;;;;;22.02;19.05;;;;;;;;;;5053777;28;20381;-79
2024/01/17 13:06:12;;;;;;;25.80;21.23;;;;;;;;;;5055053;28;20460;-80
2024/01/17 13:08:38;;;;;;;23.10;19.17;;;;;;;;;;5054262;28;20419;-79
2024/01/17 13:11:14;;;;;;;22.38;19.98;;;;;;;;;;5055458;28;20396;-79
2024/01/17 13:13:40;;;;;;;24.20;20.13;;;;;;;;;;5054648;28;20376;-79
2024/01/17 13:16:06;;;;;;;23.13;19.75;;;;;;;;;;5058863;28;20377;-80
2024/01/17 13:18:33;;;;;;;24.00;21.15;;;;;;;;;;5051962;28;20405;-80
2024/01/17 13:21:09;;;;;;;24.38;20.27;;;;;;;;;;5051779;28;20862;-80
2024/01/17 13:23:35;;;;;;;21.57;18.43;;;;;;;;;;5052187;28;20489;-80
2024/01/17 13:26:01;;;;;;;19.67;17.58;;;;;;;;;;5052778;28;20381;-79
2024/01/17 13:28:27;;;;;;;20.70;17.80;;;;;;;;;;5068154;28;20393;-81
2024/01/17 13:30:53;;;;;;;20.30;17.42;;;;;;;;;;5051932;28;20424;-80
2024/01/17 13:33:19;;;;;;;17.92;16.02;;;;;;;;;;5052220;28;20394;-80
2024/01/17 13:35:48;;;;;;;19.25;16.70;;;;;;;;;;5052780;28;20889;-80
2024/01/17 13:38:14;;;;;;;18.42;16.52;;;;;;;;;;5053175;28;20508;-79
2024/01/17 13:40:40;;;;;;;19.40;16.55;;;;;;;;;;5052800;28;20427;-80
2024/01/17 13:43:06;;;;;;;17.75;15.88;;;;;;;;;;5053268;28;20381;-80
2024/01/17 13:45:32;;;;;;;17.63;15.93;;;;;;;;;;5052954;28;20401;-80
2024/01/17 13:47:58;;;;;;;17.30;15.43;;;;;;;;;;5052495;28;20504;-79
2024/01/17 13:50:25;;;;;;;18.58;16.75;;;;;;;;;;5053634;28;20759;-79
2024/01/17 13:52:52;;;;;;;18.88;16.95;;;;;;;;;;5053473;28;20374;-80
2024/01/17 13:55:22;;;;;;;23.52;19.25;;;;;;;;;;5053178;28;20381;-80
2024/01/17 13:57:48;;;;;;;20.73;18.30;;;;;;;;;;5035921;28;21115;-79
2024/01/17 14:00:15;;;;;;;19.73;17.65;;;;;;;;;;5053397;28;20385;-80
2024/01/17 14:02:44;;;;;;;21.13;18.27;;;;;;;;;;5053621;28;20376;-80
2024/01/17 14:05:10;;;;;;;20.60;17.77;;;;;;;;;;5053774;28;20374;-80
2024/01/17 14:07:38;;;;;;;21.08;18.35;;;;;;;;;;5054262;28;20386;-81
2024/01/17 14:10:05;;;;;;;22.65;18.90;;;;;;;;;;5054103;28;20370;-80
2024/01/17 14:12:31;;;;;;;20.30;18.10;;;;;;;;;;5053522;28;20427;-81